Westerdam — PINX — position and weather

sailwx.info

Track history (hours):
 
Tides and Currents Weather Stations Pressure Air Temp Water Temp Dewpoint Dewpoint Depression Visibility Wind Speed Wind Dir Waves Ship Positions

Westerdam

Operator: Holland America Line

Last reported at 2018-Aug-14 19:00 UTC. Time now 2018-Aug-14 21:10 UTC.
Position N 58°48' W 136°36'.

Type: Passenger vessel. MMSI: 244128000.

Wind from 360 at 3 knots

Barometer 1013.0 mb
Air temperature 11.0 ° C
Visibility: greater than 5.4 NM
Water temperature 13.0 ° C

Date/timePositionNaut miles runAvg speedWind from/ knotsBaromVisibWave heightAir tempDewpointWater temp
2018-Aug-14 19:00N 58°48' W 136°36'5 6.7 360 / 31013.0 5.4 11.0 13.0
2018-Aug-14 18:13N 58°49' W 136°26'314.4
2018-Aug-14 18:00N 58°47' W 136°21'715.1
2018-Aug-14 17:30N 58°42' W 136°11'612.0
2018-Aug-14 17:00N 58°38' W 136°02'713.7
2018-Aug-14 16:30N 58°31' W 136°04'611.0
2018-Aug-14 16:00N 58°26' W 135°58'510.0
2018-Aug-14 15:30N 58°21' W 136°00'612.7
2018-Aug-14 15:00N 58°18' W 136°11'61110.2
2018-Aug-14 15:00N 58°12' W 136°12'1414.0 220 / 161011.610.8 12.0 13.0
2018-Aug-14 14:00N 58°06' W 136°36'2211.1 260 / 211011.410.8 13.9 13.0
2018-Aug-14 12:00N 58°06' W 137°18'1414.0 280 / 181010.910.8 13.0 13.0
2018-Aug-14 11:00N 58°00' W 137°42'1312.7 240 / 151011.010.8 13.0 13.0
2018-Aug-14 10:00N 58°00' W 138°06'3812.7 240 / 151006.610.8 12.0 13.0
2018-Aug-14 07:00N 58°00' W 139°18'8712.4 270 / 181009.6 5.4 13.9 13.0
2018-Aug-14 00:00N 58°36' W 141°48'9 8.7 200 / 121009.5 2.2 13.8 16.7
2018-Aug-13 23:00N 58°42' W 142°00'1716.7 220 / 91009.6 2.2 14.1 16.7
2018-Aug-13 22:00N 58°48' W 142°30'6 6.2 210 / 81010.0 2.2 13.8 16.7
2018-Aug-13 21:00N 58°48' W 142°42'8113.6 210 / 91010.0 2.2 12.8 16.7
2018-Aug-13 15:00N 59°00' W 145°18'3812.5 210 / 161009.2 5.4 13.0 16.7
2018-Aug-13 12:00N 59°06' W 146°30'1716.5 250 / 201008.6 12.8 16.7
2018-Aug-13 11:00N 59°12' W 147°00'2222.0 220 / 241008.1 12.8 16.7
2018-Aug-13 10:00N 59°24' W 147°36'5513.7 220 / 241008.1 12.8 16.7
2018-Aug-13 06:00N 59°42' W 149°18'49 2.1 180 / 201008.1 12.8 16.7
2018-Aug-12 07:00N 59°24' W 147°48'10112.6 200 / 151019.5 5.4 13.1 16.7
2018-Aug-11 23:00N 59°00' W 144°36'1413.8 220 / 211020.0 5.4 14.1 13.0
2018-Aug-11 22:00N 58°54' W 144°12'2512.4 220 / 211020.1 5.4 14.1 13.0
2018-Aug-11 20:00N 58°54' W 143°24'10413.0 220 / 211020.0 5.4 14.1 13.0
2018-Aug-11 12:00N 58°36' W 140°06'1615.6 250 / 61023.1 2.2 14.1 13.0
2018-Aug-11 11:00N 58°36' W 139°36'1312.5 310 / 61022.710.8 14.0 16.0
2018-Aug-11 10:00N 58°36' W 139°12'1111.1 310 / 61022.710.8 14.0 16.0
2018-Aug-11 09:00N 58°30' W 138°54'1312.5 310 / 61022.710.8 14.0 16.0
2018-Aug-11 08:00N 58°30' W 138°30'1413.9 310 / 61022.710.8 14.0 16.0
2018-Aug-11 07:00N 58°24' W 138°06'5212.0 310 / 61022.7 5.4 14.0 16.0
2018-Aug-11 02:42N 58°15' W 136°29'814.2
2018-Aug-11 02:09N 58°18' W 136°16'215.9
2018-Aug-11 02:00N 58°19' W 136°12'815.6
2018-Aug-11 01:31N 58°23' W 135°59'612.3
2018-Aug-11 01:00N 58°29' W 136°03'713.7
2018-Aug-11 00:30N 58°36' W 136°03'510.8
2018-Aug-11 00:00N 58°41' W 136°06'713.2
2018-Aug-10 23:29N 58°45' W 136°16'510.2
2018-Aug-10 23:00N 58°42' W 136°24'7148.0 100 / 151020.7 5.4 12.9 14.0
2018-Aug-10 22:57N 58°49' W 136°28'7 7.6
2018-Aug-10 22:00N 58°48' W 136°42'13 2.3 090 / 61020.3 5.4 12.8 14.0
2018-Aug-10 16:06N 58°45' W 136°17'114.7
2018-Aug-10 16:00N 58°44' W 136°14'713.8
2018-Aug-10 15:30N 58°40' W 136°05'510.9
2018-Aug-10 15:00N 58°34' W 136°03'10751.4
2018-Aug-10 15:00N 58°24' W 136°00'4 8.8 250 / 61017.3 5.4 11.0 14.0
2018-Aug-10 14:30N 58°28' W 136°02'510.1
2018-Aug-10 14:01N 58°24' W 135°57'611.1
2018-Aug-10 13:30N 58°19' W 135°52'815.1
2018-Aug-10 13:00N 58°17' W 135°38'9644.3
2018-Aug-10 13:00N 58°12' W 135°24'1414.0 170 / 91016.5 5.4 12.5 14.0
2018-Aug-10 12:00N 58°18' W 135°00'1212.0 160 / 271015.410.8 13.3 13.1
2018-Aug-10 11:00N 58°30' W 135°00'55 6.8 160 / 181014.010.8 13.3 13.1
2018-Aug-10 03:00N 59°24' W 135°18'0 0.0 190 / 31009.1 5.4 14.3 13.1
2018-Aug-09 19:00N 59°24' W 135°18'12 1.7 150 / 11005.1 2.2 14.3 13.1
2018-Aug-09 12:00N 59°12' W 135°18'1212.4 150 / 201004.2 2.2 13.0 13.1
2018-Aug-09 11:00N 59°00' W 135°12'1818.3 180 / 81005.010.8 13.411.517.1
2018-Aug-09 10:00N 58°42' W 135°06'1413.5 180 / 81005.010.8 13.411.517.1
2018-Aug-09 09:00N 58°30' W 134°54'26 8.7 180 / 141005.010.8 13.411.517.1
2018-Aug-09 06:00N 58°12' W 134°18'7 3.4 100 / 141007.9 5.4 14.212.917.1
2018-Aug-09 04:00N 58°18' W 134°24'63 4.2 150 / 71009.1 2.2 13.512.217.1
2018-Aug-08 13:00N 57°18' W 133°48'1515.5 160 / 261011.2 5.4 13.512.117.1
2018-Aug-08 12:00N 57°06' W 134°06'2120.5 180 / 341010.8 5.4 13.412.817.5
2018-Aug-08 11:00N 56°48' W 134°24'1818.3 180 / 221011.8 2.2 13.412.817.5
2018-Aug-08 10:00N 56°30' W 134°30'1818.0 180 / 131012.7 2.2 13.412.817.5
2018-Aug-08 09:00N 56°12' W 134°30'112 8.6 180 / 131013.0 2.2 13.412.817.5
2018-Aug-07 20:00N 55°18' W 131°36'12 1.7 150 / 41019.0 5.4 25.012.617.5
2018-Aug-07 13:00N 55°12' W 131°18'15 8.8 150 / 41020.2 5.4 15.514.217.5
2018-Aug-07 11:18N 54°58' W 131°08'414.4
2018-Aug-07 11:00N 54°54' W 131°06'2187.1 200 / 101020.0 0.0 15.913.217.4
2018-Aug-07 10:59N 54°55' W 131°08'5 9.2
2018-Aug-07 10:30N 54°51' W 131°09'918.0
2018-Aug-07 10:00N 54°42' W 131°06'6304.0 200 / 71020.010.8 13.512.116.0
2018-Aug-07 09:58N 54°47' W 131°11'4 8.8
2018-Aug-07 09:29N 54°43' W 131°14'5 9.0
2018-Aug-07 08:57N 54°38' W 131°16'4 8.8
2018-Aug-07 08:29N 54°34' W 131°17'4 8.5
2018-Aug-07 08:00N 54°30' W 131°16'5 9.4
2018-Aug-07 07:30N 54°26' W 131°11'5 9.0
2018-Aug-07 07:00N 54°23' W 131°06'611.0
2018-Aug-07 06:30N 54°19' W 130°59'611.3
2018-Aug-07 06:00N 54°18' W 130°49'713.6
2018-Aug-07 05:30N 54°14' W 130°40'815.9
2018-Aug-07 05:00N 54°10' W 130°29'816.0
2018-Aug-07 04:30N 54°05' W 130°18'815.4
2018-Aug-07 04:00N 53°58' W 130°12'714.3
2018-Aug-07 03:30N 53°52' W 130°04'815.4
2018-Aug-07 03:00N 53°47' W 129°55'4215.0
2018-Aug-07 00:11N 53°10' W 129°22'1016.1
2018-Aug-06 23:34N 53°00' W 129°16'116.5
2018-Aug-06 23:30N 52°59' W 129°15'816.1
2018-Aug-06 22:59N 52°51' W 129°11'1019.4
2018-Aug-06 22:27N 52°42' W 129°02'919.8
2018-Aug-06 21:58N 52°35' W 128°53'919.3
2018-Aug-06 21:30N 52°26' W 128°52'917.7
2018-Aug-06 21:00N 52°17' W 128°54'5309.5
2018-Aug-06 21:00N 52°12' W 128°54'3 7.2 200 / 71022.2 1.1 15.013.516.0
2018-Aug-06 20:30N 52°09' W 128°56'815.9
2018-Aug-06 20:00N 52°01' W 128°55'815.8
2018-Aug-06 19:30N 51°53' W 128°54'816.6
2018-Aug-06 19:00N 51°45' W 128°53'816.5
2018-Aug-06 18:30N 51°36' W 128°52'815.0
2018-Aug-06 18:00N 51°29' W 128°51'715.1
2018-Aug-06 17:30N 51°24' W 128°42'815.7
2018-Aug-06 17:00N 51°19' W 128°32'815.9
2018-Aug-06 16:30N 51°14' W 128°22'713.9
2018-Aug-06 16:00N 51°10' W 128°13'815.6
2018-Aug-06 15:30N 51°06' W 128°02'714.8
2018-Aug-06 15:00N 51°02' W 127°52'1016.6
2018-Aug-06 14:26N 50°56' W 127°41'716.6
2018-Aug-06 14:00N 50°51' W 127°32'816.2
2018-Aug-06 13:30N 50°48' W 127°20'816.3
2018-Aug-06 13:00N 50°45' W 127°09'3419.7
2018-Aug-06 13:00N 50°42' W 127°06'612.2 270 / 51020.2 0.1 11.311.016.0
2018-Aug-06 12:29N 50°41' W 126°56'1016.2
2018-Aug-06 11:54N 50°36' W 126°44'1014.0
2018-Aug-06 11:13N 50°30' W 126°32'417.7
2018-Aug-06 11:00N 50°30' W 126°26'1017.0
2018-Aug-06 10:24N 50°29' W 126°10'2817.9
2018-Aug-06 08:48N 50°20' W 125°27'413.6
2018-Aug-06 08:30N 50°17' W 125°24'714.9
2018-Aug-06 08:01N 50°10' W 125°22'611.9
2018-Aug-06 07:31N 50°05' W 125°16'712.7
2018-Aug-06 06:58N 49°59' W 125°11'713.3
2018-Aug-06 06:27N 49°54' W 125°03'613.6
2018-Aug-06 06:00N 49°50' W 124°56'714.1
2018-Aug-06 05:30N 49°45' W 124°49'714.9
2018-Aug-06 05:00N 49°40' W 124°41'714.8
2018-Aug-06 04:30N 49°34' W 124°33'815.2
2018-Aug-06 04:00N 49°29' W 124°24'3314.7
2018-Aug-06 01:45N 49°20' W 123°35'414.1
2018-Aug-06 01:27N 49°20' W 123°29'1114.3
2018-Aug-06 00:42N 49°19' W 123°12'212.0
2018-Aug-06 00:30N 49°19' W 123°09'2 3.9
2018-Aug-05 23:59N 49°17' W 123°07'0 0.0
2018-Aug-05 23:29N 49°17' W 123°07'0 0.0
2018-Aug-05 22:59N 49°17' W 123°07'0 0.0
2018-Aug-05 22:29N 49°17' W 123°07'0 0.0
2018-Aug-05 21:59N 49°17' W 123°07'0 0.0
2018-Aug-05 21:29N 49°17' W 123°07'0 0.0
2018-Aug-05 20:59N 49°17' W 123°07'0 0.0
2018-Aug-05 20:29N 49°17' W 123°07'0 0.0
2018-Aug-05 19:59N 49°17' W 123°07'0 0.0
2018-Aug-05 19:29N 49°17' W 123°07'0 0.0
2018-Aug-05 18:59N 49°17' W 123°07'0 0.0
2018-Aug-05 18:29N 49°17' W 123°07'0 0.0
2018-Aug-05 17:59N 49°17' W 123°07'0 0.0
2018-Aug-05 17:29N 49°17' W 123°07'0 0.0
2018-Aug-05 16:59N 49°17' W 123°07'0 0.0
2018-Aug-05 16:29N 49°17' W 123°07'0 0.0
2018-Aug-05 15:59N 49°17' W 123°07'0 0.0
2018-Aug-05 15:29N 49°17' W 123°07'0 0.0
2018-Aug-05 14:59N 49°17' W 123°07'0 0.1
2018-Aug-05 14:00N 49°17' W 123°07'2 3.0
2018-Aug-05 13:30N 49°19' W 123°08'510.6
2018-Aug-05 13:00N 49°18' W 123°16'713.3
2018-Aug-05 12:30N 49°17' W 123°26'612.7
2018-Aug-05 11:59N 49°17' W 123°36'1115.6
2018-Aug-05 11:17N 49°20' W 123°53'616.2
2018-Aug-05 10:55N 49°22' W 124°01'716.0
2018-Aug-05 10:29N 49°24' W 124°11'815.9
2018-Aug-05 09:59N 49°27' W 124°23'714.5
2018-Aug-05 09:30N 49°31' W 124°31'815.2
2018-Aug-05 09:00N 49°37' W 124°39'715.1
2018-Aug-05 08:31N 49°42' W 124°46'815.0
2018-Aug-05 08:00N 49°48' W 124°54'815.2
2018-Aug-05 07:30N 49°53' W 125°03'815.4
2018-Aug-05 07:00N 49°59' W 125°11'713.7
2018-Aug-05 06:30N 50°05' W 125°16'612.7
2018-Aug-05 06:00N 50°10' W 125°22'714.4
2018-Aug-05 05:29N 50°17' W 125°24'4013.4
2018-Aug-05 02:29N 50°30' W 126°25'1014.2
2018-Aug-05 01:48N 50°32' W 126°40'613.7
2018-Aug-05 01:24N 50°36' W 126°44'614.7
2018-Aug-05 01:00N 50°40' W 126°51'815.2
2018-Aug-05 00:30N 50°43' W 127°02'815.3
2018-Aug-05 00:00N 50°46' W 127°13'816.1
2018-Aug-04 23:30N 50°49' W 127°25'815.7
2018-Aug-04 23:00N 50°53' W 127°36'815.4
2018-Aug-04 22:30N 50°58' W 127°45'815.3
2018-Aug-04 22:00N 51°02' W 127°56'815.2
2018-Aug-04 21:30N 51°05' W 128°07'714.5
2018-Aug-04 21:00N 51°08' W 128°17'815.3
2018-Aug-04 20:30N 51°11' W 128°29'714.8
2018-Aug-04 20:00N 51°14' W 128°39'815.1
2018-Aug-04 19:30N 51°17' W 128°50'815.4
2018-Aug-04 19:00N 51°20' W 129°02'  
Track history (hours):
 
Tides and Currents Weather Stations Pressure Air Temp Water Temp Dewpoint Dewpoint Depression Visibility Wind Speed Wind Dir Waves Ship Positions

Westerdam

Operator: Holland America Line

Last reported at 2018-Aug-14 19:00 UTC. Time now 2018-Aug-14 21:10 UTC.
Position N 58°48' W 136°36'.

Type: Passenger vessel. MMSI: 244128000.

Wind from 360 at 3 knots

Barometer 1013.0 mb
Air temperature 11.0 ° C
Visibility: greater than 5.4 NM
Water temperature 13.0 ° C

Date/timePositionNaut miles runAvg speedWind from/ knotsBaromVisibWave heightAir tempDewpointWater temp
2018-Aug-14 19:00N 58°48' W 136°36'5 6.7 360 / 31013.0 5.4 11.0 13.0
2018-Aug-14 18:13N 58°49' W 136°26'314.4
2018-Aug-14 18:00N 58°47' W 136°21'715.1
2018-Aug-14 17:30N 58°42' W 136°11'612.0
2018-Aug-14 17:00N 58°38' W 136°02'713.7
2018-Aug-14 16:30N 58°31' W 136°04'611.0
2018-Aug-14 16:00N 58°26' W 135°58'510.0
2018-Aug-14 15:30N 58°21' W 136°00'612.7
2018-Aug-14 15:00N 58°18' W 136°11'61110.2
2018-Aug-14 15:00N 58°12' W 136°12'1414.0 220 / 161011.610.8 12.0 13.0
2018-Aug-14 14:00N 58°06' W 136°36'2211.1 260 / 211011.410.8 13.9 13.0
2018-Aug-14 12:00N 58°06' W 137°18'1414.0 280 / 181010.910.8 13.0 13.0
2018-Aug-14 11:00N 58°00' W 137°42'1312.7 240 / 151011.010.8 13.0 13.0
2018-Aug-14 10:00N 58°00' W 138°06'3812.7 240 / 151006.610.8 12.0 13.0
2018-Aug-14 07:00N 58°00' W 139°18'8712.4 270 / 181009.6 5.4 13.9 13.0
2018-Aug-14 00:00N 58°36' W 141°48'9 8.7 200 / 121009.5 2.2 13.8 16.7
2018-Aug-13 23:00N 58°42' W 142°00'1716.7 220 / 91009.6 2.2 14.1 16.7
2018-Aug-13 22:00N 58°48' W 142°30'6 6.2 210 / 81010.0 2.2 13.8 16.7
2018-Aug-13 21:00N 58°48' W 142°42'8113.6 210 / 91010.0 2.2 12.8 16.7
2018-Aug-13 15:00N 59°00' W 145°18'3812.5 210 / 161009.2 5.4 13.0 16.7
2018-Aug-13 12:00N 59°06' W 146°30'1716.5 250 / 201008.6 12.8 16.7
2018-Aug-13 11:00N 59°12' W 147°00'2222.0 220 / 241008.1 12.8 16.7
2018-Aug-13 10:00N 59°24' W 147°36'5513.7 220 / 241008.1 12.8 16.7
2018-Aug-13 06:00N 59°42' W 149°18'49 2.1 180 / 201008.1 12.8 16.7
2018-Aug-12 07:00N 59°24' W 147°48'10112.6 200 / 151019.5 5.4 13.1 16.7
2018-Aug-11 23:00N 59°00' W 144°36'1413.8 220 / 211020.0 5.4 14.1 13.0
2018-Aug-11 22:00N 58°54' W 144°12'2512.4 220 / 211020.1 5.4 14.1 13.0
2018-Aug-11 20:00N 58°54' W 143°24'10413.0 220 / 211020.0 5.4 14.1 13.0
2018-Aug-11 12:00N 58°36' W 140°06'1615.6 250 / 61023.1 2.2 14.1 13.0
2018-Aug-11 11:00N 58°36' W 139°36'1312.5 310 / 61022.710.8 14.0 16.0
2018-Aug-11 10:00N 58°36' W 139°12'1111.1 310 / 61022.710.8 14.0 16.0
2018-Aug-11 09:00N 58°30' W 138°54'1312.5 310 / 61022.710.8 14.0 16.0
2018-Aug-11 08:00N 58°30' W 138°30'1413.9 310 / 61022.710.8 14.0 16.0
2018-Aug-11 07:00N 58°24' W 138°06'5212.0 310 / 61022.7 5.4 14.0 16.0
2018-Aug-11 02:42N 58°15' W 136°29'814.2
2018-Aug-11 02:09N 58°18' W 136°16'215.9
2018-Aug-11 02:00N 58°19' W 136°12'815.6
2018-Aug-11 01:31N 58°23' W 135°59'612.3
2018-Aug-11 01:00N 58°29' W 136°03'713.7
2018-Aug-11 00:30N 58°36' W 136°03'510.8
2018-Aug-11 00:00N 58°41' W 136°06'713.2
2018-Aug-10 23:29N 58°45' W 136°16'510.2
2018-Aug-10 23:00N 58°42' W 136°24'7148.0 100 / 151020.7 5.4 12.9 14.0
2018-Aug-10 22:57N 58°49' W 136°28'7 7.6
2018-Aug-10 22:00N 58°48' W 136°42'13 2.3 090 / 61020.3 5.4 12.8 14.0
2018-Aug-10 16:06N 58°45' W 136°17'114.7
2018-Aug-10 16:00N 58°44' W 136°14'713.8
2018-Aug-10 15:30N 58°40' W 136°05'510.9
2018-Aug-10 15:00N 58°34' W 136°03'10751.4
2018-Aug-10 15:00N 58°24' W 136°00'4 8.8 250 / 61017.3 5.4 11.0 14.0
2018-Aug-10 14:30N 58°28' W 136°02'510.1
2018-Aug-10 14:01N 58°24' W 135°57'611.1
2018-Aug-10 13:30N 58°19' W 135°52'815.1
2018-Aug-10 13:00N 58°17' W 135°38'9644.3
2018-Aug-10 13:00N 58°12' W 135°24'1414.0 170 / 91016.5 5.4 12.5 14.0
2018-Aug-10 12:00N 58°18' W 135°00'1212.0 160 / 271015.410.8 13.3 13.1
2018-Aug-10 11:00N 58°30' W 135°00'55 6.8 160 / 181014.010.8 13.3 13.1
2018-Aug-10 03:00N 59°24' W 135°18'0 0.0 190 / 31009.1 5.4 14.3 13.1
2018-Aug-09 19:00N 59°24' W 135°18'12 1.7 150 / 11005.1 2.2 14.3 13.1
2018-Aug-09 12:00N 59°12' W 135°18'1212.4 150 / 201004.2 2.2 13.0 13.1
2018-Aug-09 11:00N 59°00' W 135°12'1818.3 180 / 81005.010.8 13.411.517.1
2018-Aug-09 10:00N 58°42' W 135°06'1413.5 180 / 81005.010.8 13.411.517.1
2018-Aug-09 09:00N 58°30' W 134°54'26 8.7 180 / 141005.010.8 13.411.517.1
2018-Aug-09 06:00N 58°12' W 134°18'7 3.4 100 / 141007.9 5.4 14.212.917.1
2018-Aug-09 04:00N 58°18' W 134°24'63 4.2 150 / 71009.1 2.2 13.512.217.1
2018-Aug-08 13:00N 57°18' W 133°48'1515.5 160 / 261011.2 5.4 13.512.117.1
2018-Aug-08 12:00N 57°06' W 134°06'2120.5 180 / 341010.8 5.4 13.412.817.5
2018-Aug-08 11:00N 56°48' W 134°24'1818.3 180 / 221011.8 2.2 13.412.817.5
2018-Aug-08 10:00N 56°30' W 134°30'1818.0 180 / 131012.7 2.2 13.412.817.5
2018-Aug-08 09:00N 56°12' W 134°30'112 8.6 180 / 131013.0 2.2 13.412.817.5
2018-Aug-07 20:00N 55°18' W 131°36'12 1.7 150 / 41019.0 5.4 25.012.617.5
2018-Aug-07 13:00N 55°12' W 131°18'15 8.8 150 / 41020.2 5.4 15.514.217.5
2018-Aug-07 11:18N 54°58' W 131°08'414.4
2018-Aug-07 11:00N 54°54' W 131°06'2187.1 200 / 101020.0 0.0 15.913.217.4
2018-Aug-07 10:59N 54°55' W 131°08'5 9.2
2018-Aug-07 10:30N 54°51' W 131°09'918.0
2018-Aug-07 10:00N 54°42' W 131°06'6304.0 200 / 71020.010.8 13.512.116.0
2018-Aug-07 09:58N 54°47' W 131°11'4 8.8
2018-Aug-07 09:29N 54°43' W 131°14'5 9.0
2018-Aug-07 08:57N 54°38' W 131°16'4 8.8
2018-Aug-07 08:29N 54°34' W 131°17'4 8.5
2018-Aug-07 08:00N 54°30' W 131°16'5 9.4
2018-Aug-07 07:30N 54°26' W 131°11'5 9.0
2018-Aug-07 07:00N 54°23' W 131°06'611.0
2018-Aug-07 06:30N 54°19' W 130°59'611.3
2018-Aug-07 06:00N 54°18' W 130°49'713.6
2018-Aug-07 05:30N 54°14' W 130°40'815.9
2018-Aug-07 05:00N 54°10' W 130°29'816.0
2018-Aug-07 04:30N 54°05' W 130°18'815.4
2018-Aug-07 04:00N 53°58' W 130°12'714.3
2018-Aug-07 03:30N 53°52' W 130°04'815.4
2018-Aug-07 03:00N 53°47' W 129°55'4215.0
2018-Aug-07 00:11N 53°10' W 129°22'1016.1
2018-Aug-06 23:34N 53°00' W 129°16'116.5
2018-Aug-06 23:30N 52°59' W 129°15'816.1
2018-Aug-06 22:59N 52°51' W 129°11'1019.4
2018-Aug-06 22:27N 52°42' W 129°02'919.8
2018-Aug-06 21:58N 52°35' W 128°53'919.3
2018-Aug-06 21:30N 52°26' W 128°52'917.7
2018-Aug-06 21:00N 52°17' W 128°54'5309.5
2018-Aug-06 21:00N 52°12' W 128°54'3 7.2 200 / 71022.2 1.1 15.013.516.0
2018-Aug-06 20:30N 52°09' W 128°56'815.9
2018-Aug-06 20:00N 52°01' W 128°55'815.8
2018-Aug-06 19:30N 51°53' W 128°54'816.6
2018-Aug-06 19:00N 51°45' W 128°53'816.5
2018-Aug-06 18:30N 51°36' W 128°52'815.0
2018-Aug-06 18:00N 51°29' W 128°51'715.1
2018-Aug-06 17:30N 51°24' W 128°42'815.7
2018-Aug-06 17:00N 51°19' W 128°32'815.9
2018-Aug-06 16:30N 51°14' W 128°22'713.9
2018-Aug-06 16:00N 51°10' W 128°13'815.6
2018-Aug-06 15:30N 51°06' W 128°02'714.8
2018-Aug-06 15:00N 51°02' W 127°52'1016.6
2018-Aug-06 14:26N 50°56' W 127°41'716.6
2018-Aug-06 14:00N 50°51' W 127°32'816.2
2018-Aug-06 13:30N 50°48' W 127°20'816.3
2018-Aug-06 13:00N 50°45' W 127°09'3419.7
2018-Aug-06 13:00N 50°42' W 127°06'612.2 270 / 51020.2 0.1 11.311.016.0
2018-Aug-06 12:29N 50°41' W 126°56'1016.2
2018-Aug-06 11:54N 50°36' W 126°44'1014.0
2018-Aug-06 11:13N 50°30' W 126°32'417.7
2018-Aug-06 11:00N 50°30' W 126°26'1017.0
2018-Aug-06 10:24N 50°29' W 126°10'2817.9
2018-Aug-06 08:48N 50°20' W 125°27'413.6
2018-Aug-06 08:30N 50°17' W 125°24'714.9
2018-Aug-06 08:01N 50°10' W 125°22'611.9
2018-Aug-06 07:31N 50°05' W 125°16'712.7
2018-Aug-06 06:58N 49°59' W 125°11'713.3
2018-Aug-06 06:27N 49°54' W 125°03'613.6
2018-Aug-06 06:00N 49°50' W 124°56'714.1
2018-Aug-06 05:30N 49°45' W 124°49'714.9
2018-Aug-06 05:00N 49°40' W 124°41'714.8
2018-Aug-06 04:30N 49°34' W 124°33'815.2
2018-Aug-06 04:00N 49°29' W 124°24'3314.7
2018-Aug-06 01:45N 49°20' W 123°35'414.1
2018-Aug-06 01:27N 49°20' W 123°29'1114.3
2018-Aug-06 00:42N 49°19' W 123°12'212.0
2018-Aug-06 00:30N 49°19' W 123°09'2 3.9
2018-Aug-05 23:59N 49°17' W 123°07'0 0.0
2018-Aug-05 23:29N 49°17' W 123°07'0 0.0
2018-Aug-05 22:59N 49°17' W 123°07'0 0.0
2018-Aug-05 22:29N 49°17' W 123°07'0 0.0
2018-Aug-05 21:59N 49°17' W 123°07'0 0.0
2018-Aug-05 21:29N 49°17' W 123°07'0 0.0
2018-Aug-05 20:59N 49°17' W 123°07'0 0.0
2018-Aug-05 20:29N 49°17' W 123°07'0 0.0
2018-Aug-05 19:59N 49°17' W 123°07'0 0.0
2018-Aug-05 19:29N 49°17' W 123°07'0 0.0
2018-Aug-05 18:59N 49°17' W 123°07'0 0.0
2018-Aug-05 18:29N 49°17' W 123°07'0 0.0
2018-Aug-05 17:59N 49°17' W 123°07'0 0.0
2018-Aug-05 17:29N 49°17' W 123°07'0 0.0
2018-Aug-05 16:59N 49°17' W 123°07'0 0.0
2018-Aug-05 16:29N 49°17' W 123°07'0 0.0
2018-Aug-05 15:59N 49°17' W 123°07'0 0.0
2018-Aug-05 15:29N 49°17' W 123°07'0 0.0
2018-Aug-05 14:59N 49°17' W 123°07'0 0.1
2018-Aug-05 14:00N 49°17' W 123°07'2 3.0
2018-Aug-05 13:30N 49°19' W 123°08'510.6
2018-Aug-05 13:00N 49°18' W 123°16'713.3
2018-Aug-05 12:30N 49°17' W 123°26'612.7
2018-Aug-05 11:59N 49°17' W 123°36'1115.6
2018-Aug-05 11:17N 49°20' W 123°53'616.2
2018-Aug-05 10:55N 49°22' W 124°01'716.0
2018-Aug-05 10:29N 49°24' W 124°11'815.9
2018-Aug-05 09:59N 49°27' W 124°23'714.5
2018-Aug-05 09:30N 49°31' W 124°31'815.2
2018-Aug-05 09:00N 49°37' W 124°39'715.1
2018-Aug-05 08:31N 49°42' W 124°46'815.0
2018-Aug-05 08:00N 49°48' W 124°54'815.2
2018-Aug-05 07:30N 49°53' W 125°03'815.4
2018-Aug-05 07:00N 49°59' W 125°11'713.7
2018-Aug-05 06:30N 50°05' W 125°16'612.7
2018-Aug-05 06:00N 50°10' W 125°22'714.4
2018-Aug-05 05:29N 50°17' W 125°24'4013.4
2018-Aug-05 02:29N 50°30' W 126°25'1014.2
2018-Aug-05 01:48N 50°32' W 126°40'613.7
2018-Aug-05 01:24N 50°36' W 126°44'614.7
2018-Aug-05 01:00N 50°40' W 126°51'815.2
2018-Aug-05 00:30N 50°43' W 127°02'815.3
2018-Aug-05 00:00N 50°46' W 127°13'816.1
2018-Aug-04 23:30N 50°49' W 127°25'815.7
2018-Aug-04 23:00N 50°53' W 127°36'815.4
2018-Aug-04 22:30N 50°58' W 127°45'815.3
2018-Aug-04 22:00N 51°02' W 127°56'815.2
2018-Aug-04 21:30N 51°05' W 128°07'714.5
2018-Aug-04 21:00N 51°08' W 128°17'815.3
2018-Aug-04 20:30N 51°11' W 128°29'714.8
2018-Aug-04 20:00N 51°14' W 128°39'815.1
2018-Aug-04 19:30N 51°17' W 128°50'815.4
2018-Aug-04 19:00N 51°20' W 129°02'  

Dump ship's entire track history